Terminal Aerodrome Forecast
Issued by NWS

Home | Current Version | Previous Version | Text Only | Print | Product List | Glossary On
Versions: 1 2 3 4 5 6 7 8 9 10 11 12 13 14
000
FTUS45 KRIW 300523
TAFWRL
TAF
KWRL 300523Z 3006/0106 VRB10G18KT P6SM VCTS SCT080CB BKN150
     FM300800 16005KT P6SM VCSH SCT080 BKN150
     FM301400 05008KT P6SM VCSH FEW110 BKN130
     FM302200 02011G18KT P6SM VCTS SCT090CB BKN110
     FM010500 16005KT P6SM SCT110=

USA.gov is the U.S. government's official web portal to all federal, state and local government web resources and services.